Time;durP1;ratioP1;P1;durP2;ratioP2;P2;SDS_P1;SDS_P2;PMS_P1;PMS_P2;Temp;Humidity;BMP_temperature;BMP_pressure;BME280_temperature;BME280_humidity;BME280_pressure;Samples;Min_cycle;Max_cycle;Signal;HPM_P1;HPM_P2
2023/01/25 00:01:59;;;;;;;14.13;7.72;;;;;;;;;;5075924;28;20492;-61
2023/01/25 00:04:27;;;;;;;13.75;7.15;;;;;;;;;;5075960;28;20047;-61
2023/01/25 00:06:54;;;;;;;15.40;7.63;;;;;;;;;;5075831;28;20441;-61
2023/01/25 00:09:23;;;;;;;14.80;7.15;;;;;;;;;;5075938;28;20130;-61
2023/01/25 00:11:52;;;;;;;15.80;7.13;;;;;;;;;;5075700;28;20436;-61
2023/01/25 00:14:19;;;;;;;14.45;7.78;;;;;;;;;;5075941;28;20044;-60
2023/01/25 00:16:46;;;;;;;15.70;7.85;;;;;;;;;;5075862;28;20036;-60
2023/01/25 00:19:14;;;;;;;13.43;6.82;;;;;;;;;;5075593;28;20040;-61
2023/01/25 00:21:42;;;;;;;12.73;7.10;;;;;;;;;;5075686;28;20064;-61
2023/01/25 00:24:13;;;;;;;14.48;7.82;;;;;;;;;;5075407;28;20044;-61
2023/01/25 00:26:44;;;;;;;13.73;7.60;;;;;;;;;;5075619;28;20121;-61
2023/01/25 00:29:13;;;;;;;15.82;8.07;;;;;;;;;;5075664;28;20037;-61
2023/01/25 00:31:45;;;;;;;15.00;7.63;;;;;;;;;;5074140;28;20041;-61
2023/01/25 00:34:25;;;;;;;15.82;7.88;;;;;;;;;;5075435;28;20043;-61
2023/01/25 00:36:58;;;;;;;16.17;7.82;;;;;;;;;;5074044;28;20048;-61
2023/01/25 00:39:26;;;;;;;13.43;6.85;;;;;;;;;;5073985;28;20049;-61
2023/01/25 00:41:54;;;;;;;13.45;7.30;;;;;;;;;;5074059;28;20093;-61
2023/01/25 00:44:21;;;;;;;16.23;7.32;;;;;;;;;;5075038;28;20171;-61
2023/01/25 00:46:49;;;;;;;13.43;7.40;;;;;;;;;;5073778;28;20070;-61
2023/01/25 00:49:21;;;;;;;17.17;7.55;;;;;;;;;;5073789;28;20033;-61
2023/01/25 00:51:49;;;;;;;12.85;6.53;;;;;;;;;;5075032;28;20048;-61
2023/01/25 00:54:18;;;;;;;15.10;7.38;;;;;;;;;;5073634;28;20044;-61
2023/01/25 00:56:46;;;;;;;19.05;7.60;;;;;;;;;;5073722;28;20055;-61
2023/01/25 00:59:14;;;;;;;18.77;7.88;;;;;;;;;;5074502;28;20028;-61
2023/01/25 01:01:42;;;;;;;16.88;8.00;;;;;;;;;;5073676;28;20131;-61
2023/01/25 01:04:10;;;;;;;17.35;7.50;;;;;;;;;;5074787;28;20032;-61
2023/01/25 01:06:41;;;;;;;14.80;7.50;;;;;;;;;;5073497;28;20056;-61
2023/01/25 01:09:11;;;;;;;13.95;7.25;;;;;;;;;;5073383;28;20044;-61
2023/01/25 01:11:39;;;;;;;15.50;7.60;;;;;;;;;;5074571;28;20068;-61
2023/01/25 01:14:07;;;;;;;14.35;7.53;;;;;;;;;;5074730;28;20041;-61
2023/01/25 01:16:35;;;;;;;16.00;8.18;;;;;;;;;;5073088;28;20045;-61
2023/01/25 01:19:03;;;;;;;15.50;7.90;;;;;;;;;;5074475;28;20571;-61
2023/01/25 01:21:30;;;;;;;15.23;7.57;;;;;;;;;;5073219;28;20044;-61
2023/01/25 01:23:58;;;;;;;15.35;8.07;;;;;;;;;;5073253;28;20094;-60
2023/01/25 01:26:25;;;;;;;15.68;7.80;;;;;;;;;;5073122;28;20083;-60
2023/01/25 01:28:53;;;;;;;15.98;8.30;;;;;;;;;;5056723;28;20036;-61
2023/01/25 01:31:21;;;;;;;16.05;8.27;;;;;;;;;;5072995;28;20055;-60
2023/01/25 01:34:12;;;;;;;14.82;7.65;;;;;;;;;;5070102;28;20040;-60
2023/01/25 01:36:40;;;;;;;16.52;7.95;;;;;;;;;;5073053;28;20045;-60
2023/01/25 01:39:07;;;;;;;15.05;8.05;;;;;;;;;;5074205;28;20179;-60
2023/01/25 01:41:35;;;;;;;14.80;7.30;;;;;;;;;;5072902;28;20094;-60
2023/01/25 01:44:03;;;;;;;16.67;8.30;;;;;;;;;;5072633;28;20098;-60
2023/01/25 01:46:36;;;;;;;16.83;7.95;;;;;;;;;;5072662;28;20567;-60
2023/01/25 01:49:24;;;;;;;16.38;7.70;;;;;;;;;;5072732;28;20036;-62
2023/01/25 01:51:57;;;;;;;17.65;7.93;;;;;;;;;;5072674;28;20048;-61
2023/01/25 01:54:28;;;;;;;14.45;7.70;;;;;;;;;;5072667;28;20041;-60
2023/01/25 01:57:06;;;;;;;18.48;8.27;;;;;;;;;;5072675;28;20072;-60
2023/01/25 01:59:39;;;;;;;17.33;8.23;;;;;;;;;;5072528;28;20502;-61
2023/01/25 02:02:07;;;;;;;15.32;6.75;;;;;;;;;;5073818;28;20603;-61
2023/01/25 02:04:35;;;;;;;18.40;8.43;;;;;;;;;;5072186;28;20497;-62
2023/01/25 02:07:19;;;;;;;15.20;7.40;;;;;;;;;;5072170;28;20048;-61
2023/01/25 02:09:48;;;;;;;14.48;7.47;;;;;;;;;;5072125;28;20048;-60
2023/01/25 02:12:16;;;;;;;16.25;7.18;;;;;;;;;;5071406;28;20427;-60
2023/01/25 02:14:50;;;;;;;15.68;6.95;;;;;;;;;;5072256;28;20048;-61
2023/01/25 02:17:24;;;;;;;14.80;7.05;;;;;;;;;;5073410;28;20097;-61
2023/01/25 02:19:54;;;;;;;13.73;6.47;;;;;;;;;;5072056;28;20044;-61
2023/01/25 02:22:30;;;;;;;14.95;6.82;;;;;;;;;;5071960;28;20052;-61
2023/01/25 02:25:17;;;;;;;15.75;7.82;;;;;;;;;;5073199;28;20060;-61
2023/01/25 02:27:50;;;;;;;15.70;7.18;;;;;;;;;;5071918;28;20094;-61
2023/01/25 02:30:19;;;;;;;15.73;7.70;;;;;;;;;;5071905;28;20513;-61
2023/01/25 02:32:46;;;;;;;16.38;7.00;;;;;;;;;;5071869;28;20037;-60
2023/01/25 02:35:18;;;;;;;17.27;7.05;;;;;;;;;;5072240;28;20047;-61
2023/01/25 02:37:46;;;;;;;11.98;6.20;;;;;;;;;;5055385;28;20559;-61
2023/01/25 02:40:14;;;;;;;12.80;6.18;;;;;;;;;;5071761;28;20078;-61
2023/01/25 02:42:42;;;;;;;13.85;6.75;;;;;;;;;;5071854;28;20056;-60
2023/01/25 02:45:11;;;;;;;13.63;7.30;;;;;;;;;;5071677;28;20040;-61
2023/01/25 02:47:38;;;;;;;15.30;6.97;;;;;;;;;;5071757;28;20052;-61
2023/01/25 02:50:06;;;;;;;14.35;6.60;;;;;;;;;;5071873;28;20064;-61
2023/01/25 02:52:33;;;;;;;14.35;6.55;;;;;;;;;;5071709;28;20425;-61
2023/01/25 02:55:01;;;;;;;15.15;6.55;;;;;;;;;;5055059;28;20045;-61
2023/01/25 02:57:28;;;;;;;14.02;6.38;;;;;;;;;;5071823;28;20053;-60
2023/01/25 02:59:56;;;;;;;13.43;6.85;;;;;;;;;;5071562;28;20136;-60
2023/01/25 03:02:25;;;;;;;15.70;7.47;;;;;;;;;;5071353;28;20052;-61
2023/01/25 03:04:52;;;;;;;13.90;6.63;;;;;;;;;;5071387;28;20573;-60
2023/01/25 03:07:20;;;;;;;17.33;7.35;;;;;;;;;;5071562;28;20063;-61
2023/01/25 03:09:47;;;;;;;18.58;7.55;;;;;;;;;;5071297;28;20045;-60
2023/01/25 03:12:15;;;;;;;14.93;6.40;;;;;;;;;;5071280;28;20075;-60
2023/01/25 03:14:44;;;;;;;16.60;7.45;;;;;;;;;;5071265;28;20128;-60
2023/01/25 03:17:11;;;;;;;15.13;7.07;;;;;;;;;;5071652;28;20482;-60
2023/01/25 03:19:39;;;;;;;16.02;7.13;;;;;;;;;;5054692;28;20090;-61
2023/01/25 03:22:08;;;;;;;14.52;6.60;;;;;;;;;;5072489;28;20106;-61
2023/01/25 03:24:36;;;;;;;13.20;6.78;;;;;;;;;;5071031;28;20557;-61
2023/01/25 03:27:10;;;;;;;13.43;6.18;;;;;;;;;;5071128;28;20040;-60
2023/01/25 03:29:44;;;;;;;19.27;7.88;;;;;;;;;;5071482;28;20128;-60
2023/01/25 03:32:17;;;;;;;17.83;7.93;;;;;;;;;;5071098;28;20045;-61
2023/01/25 03:34:44;;;;;;;14.90;7.00;;;;;;;;;;5072345;28;20094;-61
2023/01/25 03:37:13;;;;;;;17.17;7.85;;;;;;;;;;5071072;28;20087;-60
2023/01/25 03:39:42;;;;;;;17.35;8.57;;;;;;;;;;5054407;28;20132;-60
2023/01/25 03:42:09;;;;;;;18.05;7.03;;;;;;;;;;5070726;28;20468;-61
2023/01/25 03:44:37;;;;;;;13.88;6.55;;;;;;;;;;5072253;28;20047;-60
2023/01/25 03:47:05;;;;;;;16.95;7.40;;;;;;;;;;5070900;28;20353;-60
2023/01/25 03:49:33;;;;;;;19.98;7.80;;;;;;;;;;5070813;28;20041;-60
2023/01/25 03:52:02;;;;;;;15.30;7.47;;;;;;;;;;5070869;28;20075;-60
2023/01/25 03:54:35;;;;;;;18.55;7.65;;;;;;;;;;5071113;28;20127;-60
2023/01/25 03:57:03;;;;;;;14.30;7.35;;;;;;;;;;5070966;28;20044;-60
2023/01/25 03:59:39;;;;;;;16.95;7.57;;;;;;;;;;5070635;28;20070;-60
2023/01/25 04:02:07;;;;;;;15.98;7.40;;;;;;;;;;5069972;28;20495;-61
2023/01/25 04:04:35;;;;;;;17.88;8.30;;;;;;;;;;5070643;28;20494;-61
2023/01/25 04:07:03;;;;;;;15.20;7.60;;;;;;;;;;5070533;28;20049;-60
2023/01/25 04:09:32;;;;;;;14.98;7.28;;;;;;;;;;5070764;28;20036;-60
2023/01/25 04:12:00;;;;;;;16.33;7.72;;;;;;;;;;5070517;28;20410;-60
2023/01/25 04:14:30;;;;;;;19.35;7.97;;;;;;;;;;5070662;28;20367;-60
2023/01/25 04:17:12;;;;;;;19.50;8.20;;;;;;;;;;5070515;28;20119;-60
2023/01/25 04:19:49;;;;;;;14.38;7.88;;;;;;;;;;5070266;28;20045;-60
2023/01/25 04:22:20;;;;;;;18.90;8.60;;;;;;;;;;5070563;28;20058;-61
2023/01/25 04:24:50;;;;;;;15.85;8.07;;;;;;;;;;5071801;28;20120;-61
2023/01/25 04:27:17;;;;;;;18.30;8.20;;;;;;;;;;5069067;28;20045;-61
2023/01/25 04:29:56;;;;;;;19.27;8.68;;;;;;;;;;5069680;28;20036;-61
2023/01/25 04:32:25;;;;;;;17.05;8.20;;;;;;;;;;5069627;28;20059;-61
2023/01/25 04:34:54;;;;;;;17.98;8.88;;;;;;;;;;5071217;28;20124;-61
2023/01/25 04:37:24;;;;;;;18.80;9.07;;;;;;;;;;5073399;28;20049;-61
2023/01/25 04:39:56;;;;;;;16.95;8.35;;;;;;;;;;5073282;28;20036;-60
2023/01/25 04:42:25;;;;;;;17.55;8.77;;;;;;;;;;5073584;28;20383;-61
2023/01/25 04:44:55;;;;;;;17.70;8.55;;;;;;;;;;5073880;28;20040;-61
2023/01/25 04:47:23;;;;;;;17.88;8.43;;;;;;;;;;5073714;28;20045;-61
2023/01/25 04:49:51;;;;;;;19.42;9.57;;;;;;;;;;5074985;28;20364;-61
2023/01/25 04:52:22;;;;;;;17.80;8.77;;;;;;;;;;5073748;28;20067;-61
2023/01/25 04:54:50;;;;;;;19.88;9.50;;;;;;;;;;5073688;28;20056;-61
2023/01/25 04:57:17;;;;;;;21.20;9.10;;;;;;;;;;5074939;28;20068;-61
2023/01/25 04:59:49;;;;;;;22.55;9.18;;;;;;;;;;5073641;28;20048;-61
2023/01/25 05:02:18;;;;;;;20.33;9.27;;;;;;;;;;5073771;28;20197;-61
2023/01/25 05:04:45;;;;;;;19.17;9.05;;;;;;;;;;5073448;28;20041;-61
2023/01/25 05:07:13;;;;;;;22.45;9.85;;;;;;;;;;5073575;28;20052;-65
2023/01/25 05:09:41;;;;;;;20.92;9.82;;;;;;;;;;5073633;28;20102;-66
2023/01/25 05:12:12;;;;;;;18.52;8.35;;;;;;;;;;5073439;28;20054;-67
2023/01/25 05:15:06;;;;;;;19.00;9.02;;;;;;;;;;5072399;28;20098;-66
2023/01/25 05:17:34;;;;;;;20.52;8.95;;;;;;;;;;5072882;28;20051;-65
2023/01/25 05:20:02;;;;;;;20.25;10.05;;;;;;;;;;5073326;28;20461;-66
2023/01/25 05:22:30;;;;;;;22.73;10.25;;;;;;;;;;5073195;28;20135;-66
2023/01/25 05:24:58;;;;;;;19.70;9.73;;;;;;;;;;5073045;28;20410;-66
2023/01/25 05:27:25;;;;;;;23.55;10.25;;;;;;;;;;5056981;28;20071;-66
2023/01/25 05:29:53;;;;;;;20.48;10.02;;;;;;;;;;5073201;28;20041;-66
2023/01/25 05:32:27;;;;;;;17.33;9.35;;;;;;;;;;5057357;28;20414;-66
2023/01/25 05:34:55;;;;;;;20.55;9.73;;;;;;;;;;5073018;28;20060;-66
2023/01/25 05:37:24;;;;;;;22.05;10.52;;;;;;;;;;5074260;28;20517;-66
2023/01/25 05:39:58;;;;;;;20.13;10.18;;;;;;;;;;5079228;28;20486;-66
2023/01/25 05:42:26;;;;;;;20.00;9.80;;;;;;;;;;5073920;28;20052;-66
2023/01/25 05:44:54;;;;;;;22.23;10.80;;;;;;;;;;5072272;28;20040;-66
2023/01/25 05:47:23;;;;;;;23.00;10.75;;;;;;;;;;5071703;28;20498;-66
2023/01/25 05:49:51;;;;;;;20.55;10.48;;;;;;;;;;5072715;28;20044;-65
2023/01/25 05:52:27;;;;;;;22.60;10.63;;;;;;;;;;5072718;28;20048;-66
2023/01/25 05:54:55;;;;;;;22.05;10.50;;;;;;;;;;5072623;28;20047;-66
2023/01/25 05:57:23;;;;;;;22.88;11.32;;;;;;;;;;5072615;28;20106;-66
2023/01/25 05:59:52;;;;;;;25.35;11.70;;;;;;;;;;5072638;28;20041;-66
2023/01/25 06:02:20;;;;;;;23.42;10.82;;;;;;;;;;5072561;28;20049;-67
2023/01/25 06:04:47;;;;;;;22.30;11.13;;;;;;;;;;5072870;28;20102;-66
2023/01/25 06:07:15;;;;;;;20.00;10.00;;;;;;;;;;5072483;28;20051;-66
2023/01/25 06:09:44;;;;;;;20.15;9.68;;;;;;;;;;5073342;28;20127;-66
2023/01/25 06:12:11;;;;;;;22.00;11.02;;;;;;;;;;5073690;28;20402;-66
2023/01/25 06:14:39;;;;;;;36.42;16.25;;;;;;;;;;5073531;28;20068;-66
2023/01/25 06:17:06;;;;;;;39.03;17.13;;;;;;;;;;5072584;28;20064;-67
2023/01/25 06:20:06;;;;;;;20.60;10.48;;;;;;;;;;5060719;28;20044;-66
2023/01/25 06:22:35;;;;;;;21.60;11.05;;;;;;;;;;5073433;28;20048;-67
2023/01/25 06:25:03;;;;;;;19.60;9.95;;;;;;;;;;5073263;28;20495;-67
2023/01/25 06:27:30;;;;;;;19.95;10.15;;;;;;;;;;5073217;28;20036;-66
2023/01/25 06:29:58;;;;;;;20.42;9.98;;;;;;;;;;5073210;28;20094;-66
2023/01/25 06:32:26;;;;;;;25.33;12.10;;;;;;;;;;5073167;28;20036;-66
2023/01/25 06:34:53;;;;;;;27.98;12.20;;;;;;;;;;5073212;28;20041;-67
2023/01/25 06:37:23;;;;;;;21.42;10.05;;;;;;;;;;5071879;28;20040;-66
2023/01/25 06:39:52;;;;;;;21.15;9.93;;;;;;;;;;5073024;28;20498;-66
2023/01/25 06:42:19;;;;;;;24.23;11.80;;;;;;;;;;5072874;28;20287;-66
2023/01/25 06:44:47;;;;;;;21.90;11.68;;;;;;;;;;5072932;28;20119;-67
2023/01/25 06:47:14;;;;;;;21.17;10.00;;;;;;;;;;5072872;28;20486;-66
2023/01/25 06:49:41;;;;;;;20.92;10.50;;;;;;;;;;5072997;28;20503;-66
2023/01/25 06:52:09;;;;;;;23.08;11.23;;;;;;;;;;5072965;28;20304;-66
2023/01/25 06:54:36;;;;;;;21.27;12.07;;;;;;;;;;5073056;28;20036;-66
2023/01/25 06:57:04;;;;;;;28.70;14.68;;;;;;;;;;5072684;28;20068;-66
2023/01/25 06:59:32;;;;;;;28.20;15.02;;;;;;;;;;5073144;28;20048;-66
2023/01/25 07:01:59;;;;;;;27.23;12.68;;;;;;;;;;5072861;28;20075;-65
2023/01/25 07:04:27;;;;;;;30.08;14.68;;;;;;;;;;5072709;28;20103;-65
2023/01/25 07:06:54;;;;;;;23.27;11.00;;;;;;;;;;5072700;28;20036;-66
2023/01/25 07:09:23;;;;;;;28.05;12.95;;;;;;;;;;5072005;28;20090;-67
2023/01/25 07:11:51;;;;;;;22.52;12.50;;;;;;;;;;5072179;28;20130;-65
2023/01/25 07:14:19;;;;;;;21.10;10.40;;;;;;;;;;5072728;28;20040;-65
2023/01/25 07:16:46;;;;;;;29.23;14.43;;;;;;;;;;5072646;28;20080;-66
2023/01/25 07:19:13;;;;;;;43.20;21.70;;;;;;;;;;5072431;28;20090;-66
2023/01/25 07:21:41;;;;;;;26.52;14.32;;;;;;;;;;5072418;28;20036;-66
2023/01/25 07:24:12;;;;;;;24.30;12.00;;;;;;;;;;5072576;28;20111;-66
2023/01/25 07:26:40;;;;;;;23.95;10.68;;;;;;;;;;5072319;28;20040;-66
2023/01/25 07:29:11;;;;;;;19.42;10.32;;;;;;;;;;5072385;28;20335;-66
2023/01/25 07:31:38;;;;;;;20.95;10.73;;;;;;;;;;5072375;28;20047;-66
2023/01/25 07:34:06;;;;;;;21.73;10.95;;;;;;;;;;5072464;28;20048;-66
2023/01/25 07:36:33;;;;;;;20.88;10.40;;;;;;;;;;5072329;28;20037;-67
2023/01/25 07:39:01;;;;;;;18.70;9.23;;;;;;;;;;5070988;28;20082;-67
2023/01/25 07:41:28;;;;;;;18.05;9.32;;;;;;;;;;5072417;28;20513;-66
2023/01/25 07:43:56;;;;;;;18.95;9.25;;;;;;;;;;5072140;28;20136;-66
2023/01/25 07:46:37;;;;;;;17.35;8.68;;;;;;;;;;5070885;28;20132;-66
2023/01/25 07:49:04;;;;;;;20.33;9.05;;;;;;;;;;5072141;28;20052;-67
2023/01/25 07:51:32;;;;;;;18.83;9.68;;;;;;;;;;5072151;28;20040;-66
2023/01/25 07:54:01;;;;;;;18.00;9.77;;;;;;;;;;5072215;28;20044;-66
2023/01/25 07:56:29;;;;;;;18.88;9.52;;;;;;;;;;5072157;28;20040;-67
2023/01/25 07:58:58;;;;;;;20.80;9.88;;;;;;;;;;5072158;28;20032;-66
2023/01/25 08:01:26;;;;;;;18.42;9.02;;;;;;;;;;5072129;28;20206;-67
2023/01/25 08:03:56;;;;;;;21.17;9.60;;;;;;;;;;5072219;28;20060;-67
2023/01/25 08:06:29;;;;;;;20.70;10.27;;;;;;;;;;5072643;28;20044;-66
2023/01/25 08:08:58;;;;;;;18.70;9.50;;;;;;;;;;5072715;28;20049;-67
2023/01/25 08:11:27;;;;;;;19.48;10.30;;;;;;;;;;5074938;28;20037;-65
2023/01/25 08:13:55;;;;;;;29.13;12.95;;;;;;;;;;5075821;28;20041;-67
2023/01/25 08:16:26;;;;;;;23.83;9.52;;;;;;;;;;5075738;28;20040;-66
2023/01/25 08:18:55;;;;;;;21.08;10.20;;;;;;;;;;5075896;28;20041;-66
2023/01/25 08:21:24;;;;;;;20.08;9.23;;;;;;;;;;5075632;28;20048;-66
2023/01/25 08:23:51;;;;;;;16.95;9.43;;;;;;;;;;5075634;28;20045;-66
2023/01/25 08:26:20;;;;;;;17.05;9.65;;;;;;;;;;5075435;28;20070;-66
2023/01/25 08:28:47;;;;;;;22.15;11.35;;;;;;;;;;5075548;28;20071;-65
2023/01/25 08:31:19;;;;;;;23.10;11.13;;;;;;;;;;5075537;28;20033;-66
2023/01/25 08:33:47;;;;;;;21.05;12.07;;;;;;;;;;5075370;28;20040;-66
2023/01/25 08:36:17;;;;;;;23.85;11.82;;;;;;;;;;5075323;28;20146;-66
2023/01/25 08:38:45;;;;;;;19.65;10.65;;;;;;;;;;5075270;28;20040;-66
2023/01/25 08:41:14;;;;;;;27.15;13.52;;;;;;;;;;5075146;28;20090;-66
2023/01/25 08:43:42;;;;;;;20.60;11.23;;;;;;;;;;5074957;28;20386;-66
2023/01/25 08:46:10;;;;;;;19.02;10.02;;;;;;;;;;5075312;28;20051;-67
2023/01/25 08:48:38;;;;;;;17.88;8.95;;;;;;;;;;5075423;28;20051;-66
2023/01/25 08:51:11;;;;;;;18.77;9.70;;;;;;;;;;5073977;28;20037;-66
2023/01/25 08:53:38;;;;;;;17.58;9.35;;;;;;;;;;5075005;28;20045;-66
2023/01/25 08:56:08;;;;;;;19.10;9.60;;;;;;;;;;5073889;28;20123;-66
2023/01/25 08:58:37;;;;;;;21.80;11.77;;;;;;;;;;5075233;28;20044;-66
2023/01/25 09:01:06;;;;;;;19.45;8.73;;;;;;;;;;5075254;28;20078;-66
2023/01/25 09:03:37;;;;;;;17.10;9.38;;;;;;;;;;5075607;28;20450;-66
2023/01/25 09:06:05;;;;;;;19.08;9.80;;;;;;;;;;5074063;28;20071;-66
2023/01/25 09:08:33;;;;;;;20.25;11.48;;;;;;;;;;5074695;28;20053;-66
2023/01/25 09:11:05;;;;;;;17.80;9.77;;;;;;;;;;5074748;28;20087;-66
2023/01/25 09:13:32;;;;;;;17.33;9.48;;;;;;;;;;5074607;28;20067;-66
2023/01/25 09:16:06;;;;;;;20.67;10.23;;;;;;;;;;5074900;28;20086;-66
2023/01/25 09:18:36;;;;;;;19.17;9.53;;;;;;;;;;5074866;28;20040;-66
2023/01/25 09:21:07;;;;;;;18.65;9.43;;;;;;;;;;5074269;28;20040;-66
2023/01/25 09:23:35;;;;;;;22.02;11.80;;;;;;;;;;5074431;28;20119;-66
2023/01/25 09:26:23;;;;;;;26.70;13.43;;;;;;;;;;5074284;28;20529;-66
2023/01/25 09:28:52;;;;;;;20.33;11.43;;;;;;;;;;5074349;28;20046;-66
2023/01/25 09:31:20;;;;;;;20.55;10.02;;;;;;;;;;5074446;28;20576;-67
2023/01/25 09:34:12;;;;;;;16.65;8.98;;;;;;;;;;5073105;28;20049;-66
2023/01/25 09:36:40;;;;;;;19.88;9.63;;;;;;;;;;5074246;28;20033;-66
2023/01/25 09:39:10;;;;;;;24.55;12.80;;;;;;;;;;5074339;28;20043;-66
2023/01/25 09:41:41;;;;;;;21.58;11.77;;;;;;;;;;5074478;28;20036;-66
2023/01/25 09:44:24;;;;;;;25.60;13.55;;;;;;;;;;5074010;28;20092;-67
2023/01/25 09:46:56;;;;;;;19.33;10.63;;;;;;;;;;5074096;28;20072;-66
2023/01/25 09:49:43;;;;;;;20.98;10.73;;;;;;;;;;5073952;28;20047;-66
2023/01/25 09:52:29;;;;;;;20.00;9.63;;;;;;;;;;5074109;28;20094;-66
2023/01/25 09:54:57;;;;;;;17.58;8.30;;;;;;;;;;5074304;28;20509;-66
2023/01/25 09:57:33;;;;;;;17.05;8.95;;;;;;;;;;5073875;28;20124;-65
2023/01/25 10:00:03;;;;;;;17.42;9.00;;;;;;;;;;5073852;28;20064;-66
2023/01/25 10:02:38;;;;;;;19.08;10.15;;;;;;;;;;5073729;28;20056;-65
2023/01/25 10:05:08;;;;;;;24.98;13.43;;;;;;;;;;5073884;28;20044;-66
2023/01/25 10:07:58;;;;;;;21.50;10.45;;;;;;;;;;5073653;28;20486;-68
2023/01/25 10:10:42;;;;;;;23.17;10.27;;;;;;;;;;5036795;28;20057;-67
2023/01/25 10:13:19;;;;;;;15.10;8.57;;;;;;;;;;5073420;28;20112;-67
2023/01/25 10:15:58;;;;;;;15.75;8.55;;;;;;;;;;5073438;28;20083;-66
2023/01/25 10:18:44;;;;;;;17.02;9.57;;;;;;;;;;5073506;28;20040;-67
2023/01/25 10:21:24;;;;;;;16.27;8.90;;;;;;;;;;5073378;28;20041;-66
2023/01/25 10:24:18;;;;;;;19.58;10.18;;;;;;;;;;5073341;28;20099;-67
2023/01/25 10:26:48;;;;;;;27.90;14.75;;;;;;;;;;5035283;28;20049;-67
2023/01/25 10:29:18;;;;;;;20.90;10.75;;;;;;;;;;5073139;28;20040;-66
2023/01/25 10:31:52;;;;;;;17.77;10.18;;;;;;;;;;5071788;28;20429;-66
2023/01/25 10:34:21;;;;;;;18.08;10.65;;;;;;;;;;5073035;28;20048;-67
2023/01/25 10:36:53;;;;;;;18.23;9.05;;;;;;;;;;5073079;28;20505;-66
2023/01/25 10:39:21;;;;;;;16.88;8.75;;;;;;;;;;5073113;28;20049;-66
2023/01/25 10:41:55;;;;;;;16.10;8.55;;;;;;;;;;5072991;28;20041;-67
2023/01/25 10:44:25;;;;;;;15.27;8.38;;;;;;;;;;5072931;28;20036;-66
2023/01/25 10:47:06;;;;;;;18.15;9.30;;;;;;;;;;5072962;28;20045;-66
2023/01/25 10:49:39;;;;;;;16.90;9.30;;;;;;;;;;5073223;28;20035;-67
2023/01/25 10:52:16;;;;;;;17.45;10.13;;;;;;;;;;5072909;28;20106;-66
2023/01/25 10:54:43;;;;;;;17.50;9.27;;;;;;;;;;5073142;28;20040;-66
2023/01/25 10:57:14;;;;;;;18.27;9.35;;;;;;;;;;5072753;28;20036;-66
2023/01/25 10:59:44;;;;;;;18.23;9.75;;;;;;;;;;5072934;28;20479;-66
2023/01/25 11:02:35;;;;;;;18.25;8.90;;;;;;;;;;5072825;28;20052;-66
2023/01/25 11:05:17;;;;;;;18.13;9.10;;;;;;;;;;5072745;28;20068;-67
2023/01/25 11:07:46;;;;;;;17.05;8.73;;;;;;;;;;5072584;28;20135;-66
2023/01/25 11:10:30;;;;;;;21.15;10.80;;;;;;;;;;5072630;28;20098;-66
2023/01/25 11:13:16;;;;;;;17.60;9.95;;;;;;;;;;5072763;28;20053;-66
2023/01/25 11:15:44;;;;;;;18.15;9.20;;;;;;;;;;5072840;28;20036;-68
2023/01/25 11:18:33;;;;;;;17.52;8.93;;;;;;;;;;5073012;28;20056;-66
2023/01/25 11:21:04;;;;;;;18.50;10.90;;;;;;;;;;5071473;28;20040;-67
2023/01/25 11:23:32;;;;;;;21.80;10.52;;;;;;;;;;5072623;28;20560;-66
2023/01/25 11:26:18;;;;;;;27.20;13.93;;;;;;;;;;5072666;28;20041;-65
2023/01/25 11:28:47;;;;;;;18.23;9.40;;;;;;;;;;5071094;28;20398;-65
2023/01/25 11:31:17;;;;;;;26.95;13.40;;;;;;;;;;5071245;28;20151;-67
2023/01/25 11:33:44;;;;;;;19.73;10.13;;;;;;;;;;5072327;28;20119;-66
2023/01/25 11:36:35;;;;;;;26.73;13.57;;;;;;;;;;5072265;28;20045;-66
2023/01/25 11:39:25;;;;;;;24.95;13.15;;;;;;;;;;5072557;28;20044;-66
2023/01/25 11:42:05;;;;;;;20.10;11.05;;;;;;;;;;5035440;28;20128;-66
2023/01/25 11:45:08;;;;;;;25.05;12.27;;;;;;;;;;5073237;28;20504;-66
2023/01/25 11:47:36;;;;;;;23.25;10.43;;;;;;;;;;4978294;28;20493;-66
2023/01/25 11:50:18;;;;;;;18.13;9.88;;;;;;;;;;5060998;28;20060;-66
2023/01/25 11:53:00;;;;;;;18.27;9.05;;;;;;;;;;5075051;28;20555;-66
2023/01/25 11:55:44;;;;;;;20.33;10.48;;;;;;;;;;5076221;28;20064;-66
2023/01/25 11:58:12;;;;;;;21.98;11.90;;;;;;;;;;5076109;28;20111;-66
2023/01/25 12:00:39;;;;;;;18.83;10.20;;;;;;;;;;5076130;28;20114;-66
2023/01/25 12:03:19;;;;;;;16.88;9.00;;;;;;;;;;5076395;28;20111;-66
2023/01/25 12:05:55;;;;;;;16.25;9.02;;;;;;;;;;5076333;28;20138;-69
2023/01/25 12:08:29;;;;;;;23.10;11.43;;;;;;;;;;5076053;28;20047;-65
2023/01/25 12:11:07;;;;;;;24.08;11.50;;;;;;;;;;5076181;28;20483;-68
2023/01/25 12:13:49;;;;;;;21.75;11.38;;;;;;;;;;5076117;28;20032;-66
2023/01/25 12:16:35;;;;;;;19.23;9.77;;;;;;;;;;5076026;28;20426;-67
2023/01/25 12:19:21;;;;;;;20.38;8.50;;;;;;;;;;5076504;28;20052;-67
2023/01/25 12:21:57;;;;;;;20.40;10.05;;;;;;;;;;5076025;28;20036;-68
2023/01/25 12:24:32;;;;;;;22.05;11.60;;;;;;;;;;5075877;28;20086;-66
2023/01/25 12:27:05;;;;;;;21.27;11.57;;;;;;;;;;5075741;28;20048;-67
2023/01/25 12:29:40;;;;;;;22.77;11.93;;;;;;;;;;5075820;28;20435;-68
2023/01/25 12:32:16;;;;;;;20.27;10.75;;;;;;;;;;5075583;28;20060;-69
2023/01/25 12:34:47;;;;;;;20.63;10.02;;;;;;;;;;5075569;28;20481;-66
2023/01/25 12:37:15;;;;;;;17.58;9.05;;;;;;;;;;5075367;28;20094;-66
2023/01/25 12:39:46;;;;;;;18.92;10.02;;;;;;;;;;5075264;28;20045;-66
2023/01/25 12:42:21;;;;;;;18.77;9.95;;;;;;;;;;5075215;28;20486;-67
2023/01/25 12:44:48;;;;;;;19.65;10.65;;;;;;;;;;5075682;28;20387;-67
2023/01/25 12:47:27;;;;;;;21.85;11.32;;;;;;;;;;5075506;28;20373;-67
2023/01/25 12:49:56;;;;;;;21.52;10.63;;;;;;;;;;5075322;28;20048;-67
2023/01/25 12:52:32;;;;;;;21.52;11.63;;;;;;;;;;5075057;28;20045;-65
2023/01/25 12:55:04;;;;;;;24.35;14.18;;;;;;;;;;5074609;28;20490;-68
2023/01/25 12:57:35;;;;;;;18.40;9.82;;;;;;;;;;5075134;28;20044;-66
2023/01/25 13:00:18;;;;;;;19.27;10.05;;;;;;;;;;5075132;28;20049;-66
2023/01/25 13:02:53;;;;;;;22.75;11.07;;;;;;;;;;5074856;28;20120;-66
2023/01/25 13:05:24;;;;;;;20.08;10.68;;;;;;;;;;5074870;28;20049;-66
2023/01/25 13:08:06;;;;;;;23.02;11.63;;;;;;;;;;5074810;28;20040;-66
2023/01/25 13:10:35;;;;;;;20.60;11.02;;;;;;;;;;5074775;28;20044;-67
2023/01/25 13:13:16;;;;;;;21.25;10.23;;;;;;;;;;5074740;28;20045;-66
2023/01/25 13:15:44;;;;;;;22.73;11.70;;;;;;;;;;5074859;28;20079;-65
2023/01/25 13:18:23;;;;;;;21.50;11.52;;;;;;;;;;5074779;28;20387;-66
2023/01/25 13:20:53;;;;;;;20.80;10.65;;;;;;;;;;5074802;28;20444;-66
2023/01/25 13:23:42;;;;;;;20.75;10.57;;;;;;;;;;5074726;28;20382;-65
2023/01/25 13:26:27;;;;;;;18.63;10.40;;;;;;;;;;5074575;28;20044;-67
2023/01/25 13:28:56;;;;;;;19.73;10.75;;;;;;;;;;5073246;28;20155;-66
2023/01/25 13:31:39;;;;;;;24.73;12.60;;;;;;;;;;5074624;28;20041;-66
2023/01/25 13:34:38;;;;;;;21.52;10.68;;;;;;;;;;5074338;28;20115;-67
2023/01/25 13:37:19;;;;;;;24.40;12.98;;;;;;;;;;5074328;28;20123;-66
2023/01/25 13:39:47;;;;;;;25.40;12.77;;;;;;;;;;5074310;28;20043;-66
2023/01/25 13:42:18;;;;;;;20.85;10.50;;;;;;;;;;5074057;28;20048;-66
2023/01/25 13:44:50;;;;;;;28.05;14.77;;;;;;;;;;5074211;28;20107;-66
2023/01/25 13:47:38;;;;;;;23.65;13.07;;;;;;;;;;5072932;28;20053;-66
2023/01/25 13:50:08;;;;;;;30.83;15.98;;;;;;;;;;5074070;28;20041;-67
2023/01/25 13:52:36;;;;;;;20.30;11.38;;;;;;;;;;5074023;28;20037;-66
2023/01/25 13:55:16;;;;;;;24.52;12.48;;;;;;;;;;5073969;28;20040;-68
2023/01/25 13:57:44;;;;;;;21.33;9.93;;;;;;;;;;5074128;28;20060;-67
2023/01/25 14:00:15;;;;;;;21.65;11.40;;;;;;;;;;5073899;28;20098;-67
2023/01/25 14:02:52;;;;;;;20.30;10.27;;;;;;;;;;5073787;28;20532;-67
2023/01/25 14:05:21;;;;;;;21.33;12.10;;;;;;;;;;5073877;28;20032;-67
2023/01/25 14:07:50;;;;;;;28.38;14.90;;;;;;;;;;5072755;28;20040;-66
2023/01/25 14:10:22;;;;;;;63.88;25.75;;;;;;;;;;5073826;28;20040;-67
2023/01/25 14:12:51;;;;;;;54.95;21.92;;;;;;;;;;5073503;28;20037;-66
2023/01/25 14:15:21;;;;;;;68.47;29.52;;;;;;;;;;5073594;28;20082;-66
2023/01/25 14:18:18;;;;;;;32.67;15.05;;;;;;;;;;5073533;28;20483;-66
2023/01/25 14:20:46;;;;;;;24.00;12.18;;;;;;;;;;5057133;28;20098;-66
2023/01/25 14:23:24;;;;;;;23.17;12.15;;;;;;;;;;5072894;28;20041;-68
2023/01/25 14:25:52;;;;;;;32.13;14.43;;;;;;;;;;5073249;28;20409;-68
2023/01/25 14:28:20;;;;;;;21.67;12.57;;;;;;;;;;5071168;28;20098;-66
2023/01/25 14:30:55;;;;;;;25.08;13.27;;;;;;;;;;5071386;28;20379;-66
2023/01/25 14:33:28;;;;;;;26.45;13.32;;;;;;;;;;5072806;28;20064;-66
2023/01/25 14:36:02;;;;;;;39.75;19.33;;;;;;;;;;5072418;28;20056;-72
2023/01/25 14:38:49;;;;;;;25.38;13.38;;;;;;;;;;5066520;28;20039;-72
2023/01/25 14:41:18;;;;;;;26.60;14.27;;;;;;;;;;5073451;28;20044;-71
2023/01/25 14:43:51;;;;;;;23.95;13.13;;;;;;;;;;5072754;28;20566;-72
2023/01/25 14:46:18;;;;;;;23.50;14.70;;;;;;;;;;5073206;28;20133;-72
2023/01/25 14:48:46;;;;;;;32.88;17.23;;;;;;;;;;5072159;28;20036;-71
2023/01/25 14:51:21;;;;;;;62.45;31.40;;;;;;;;;;5072113;28;20444;-72